Time;durP1;ratioP1;P1;durP2;ratioP2;P2;SDS_P1;SDS_P2;PMS_P1;PMS_P2;Temp;Humidity;BMP_temperature;BMP_pressure;BME280_temperature;BME280_humidity;BME280_pressure;Samples;Min_cycle;Max_cycle;Signal;HPM_P1;HPM_P2
2022/04/28 00:00:06;;;;;;;6.05;3.47;;;9.00;60.10;;;;;;5091560;28;20059;-71
2022/04/28 00:02:33;;;;;;;4.47;2.90;;;9.00;60.20;;;;;;5086736;28;20032;-71
2022/04/28 00:04:59;;;;;;;6.43;3.15;;;9.00;60.30;;;;;;5088546;28;20095;-70
2022/04/28 00:07:25;;;;;;;5.88;2.78;;;9.00;60.40;;;;;;5089508;28;20028;-73
2022/04/28 00:09:51;;;;;;;6.10;3.13;;;9.00;60.60;;;;;;5085536;28;20027;-72
2022/04/28 00:12:16;;;;;;;5.53;3.30;;;8.90;60.60;;;;;;5088809;28;20032;-71
2022/04/28 00:14:45;;;;;;;7.22;3.15;;;8.90;60.70;;;;;;5088178;28;20083;-75
2022/04/28 00:17:10;;;;;;;7.90;3.45;;;8.90;60.80;;;;;;5092099;28;20016;-75
2022/04/28 00:19:36;;;;;;;4.88;3.13;;;8.80;60.90;;;;;;5092027;28;20085;-74
2022/04/28 00:22:03;;;;;;;7.53;3.08;;;8.80;61.10;;;;;;5088446;28;20065;-75
2022/04/28 00:24:28;;;;;;;6.32;3.35;;;8.80;61.20;;;;;;5086191;28;20036;-74
2022/04/28 00:26:54;;;;;;;7.82;3.40;;;8.80;61.20;;;;;;5089184;28;20024;-74
2022/04/28 00:29:20;;;;;;;5.97;3.28;;;8.80;61.10;;;;;;5092495;28;20047;-70
2022/04/28 00:31:47;;;;;;;6.30;3.20;;;8.80;61.10;;;;;;5091467;28;20166;-70
2022/04/28 00:34:12;;;;;;;8.15;3.55;;;8.80;61.20;;;;;;5088854;28;20028;-70
2022/04/28 00:36:37;;;;;;;5.70;3.53;;;8.80;61.30;;;;;;5091361;28;20024;-68
2022/04/28 00:39:03;;;;;;;5.75;3.30;;;8.80;61.50;;;;;;5090271;28;20059;-70
2022/04/28 00:41:29;;;;;;;6.20;3.50;;;8.80;61.50;;;;;;5087541;28;20024;-72
2022/04/28 00:43:54;;;;;;;5.43;2.88;;;8.80;61.50;;;;;;5091581;28;20044;-70
2022/04/28 00:46:21;;;;;;;7.07;3.53;;;8.80;61.60;;;;;;5089207;28;20028;-69
2022/04/28 00:51:33;;;;;;;7.07;3.70;;;8.70;61.70;;;;;;5090825;28;20092;-70
2022/04/28 00:54:00;;;;;;;7.25;4.05;;;8.70;61.80;;;;;;5090079;28;20032;-69
2022/04/28 00:56:30;;;;;;;5.93;3.35;;;8.70;61.90;;;;;;5084973;28;20030;-69
2022/04/28 00:59:02;;;;;;;5.57;3.30;;;8.70;61.90;;;;;;5090454;28;20021;-72
2022/04/28 01:01:28;;;;;;;6.43;3.33;;;8.60;62.00;;;;;;5088995;28;20026;-72
2022/04/28 01:03:54;;;;;;;4.40;3.20;;;8.50;62.10;;;;;;5085448;28;20035;-72
2022/04/28 01:06:20;;;;;;;6.05;3.35;;;8.60;62.20;;;;;;5084090;28;20475;-72
2022/04/28 01:08:46;;;;;;;7.18;3.50;;;8.50;62.20;;;;;;5088016;28;20040;-73
2022/04/28 01:11:13;;;;;;;7.00;3.63;;;8.50;62.20;;;;;;5106233;28;20035;-72
2022/04/28 01:13:38;;;;;;;6.60;3.60;;;8.50;62.40;;;;;;5089628;28;20024;-72
2022/04/28 01:16:04;;;;;;;8.80;3.42;;;8.50;62.50;;;;;;5089084;28;20554;-72
2022/04/28 01:18:29;;;;;;;7.95;3.60;;;8.40;62.50;;;;;;5090948;28;20028;-72
2022/04/28 01:21:00;;;;;;;5.53;3.22;;;8.40;62.60;;;;;;5087515;28;20052;-70
2022/04/28 01:23:26;;;;;;;6.68;3.65;;;8.40;62.90;;;;;;5087272;28;20123;-72
2022/04/28 01:25:51;;;;;;;5.07;3.65;;;8.40;62.90;;;;;;5090247;28;20031;-71
2022/04/28 01:28:17;;;;;;;8.13;4.20;;;8.30;62.90;;;;;;5087573;28;20020;-71
2022/04/28 01:30:43;;;;;;;6.30;3.75;;;8.30;63.10;;;;;;5089078;28;20081;-71
2022/04/28 01:33:08;;;;;;;6.75;3.70;;;8.30;63.20;;;;;;5089706;28;20024;-71
2022/04/28 01:35:34;;;;;;;6.35;4.10;;;8.20;63.20;;;;;;5088732;28;20031;-71
2022/04/28 01:37:59;;;;;;;5.63;3.75;;;8.20;63.40;;;;;;5089404;28;20042;-73
2022/04/28 01:40:25;;;;;;;9.95;4.38;;;8.20;63.50;;;;;;5089932;28;20497;-73
2022/04/28 01:42:51;;;;;;;6.10;3.95;;;8.10;63.90;;;;;;5086271;28;20028;-73
2022/04/28 01:45:17;;;;;;;6.72;4.00;;;8.10;64.10;;;;;;5077498;28;20035;-73
2022/04/28 01:47:43;;;;;;;7.57;3.70;;;8.10;64.10;;;;;;5088251;28;20024;-73
2022/04/28 01:50:12;;;;;;;10.32;5.30;;;8.00;64.20;;;;;;5088737;28;20020;-73
2022/04/28 01:55:22;;;;;;;8.90;4.90;;;7.90;65.30;;;;;;5080876;28;20160;-73
2022/04/28 01:57:48;;;;;;;7.65;4.32;;;7.80;65.50;;;;;;5088289;28;20638;-72
2022/04/28 02:00:15;;;;;;;7.13;4.22;;;7.80;65.50;;;;;;5089457;28;20024;-70
2022/04/28 02:02:42;;;;;;;10.25;5.63;;;7.80;65.50;;;;;;5082539;28;20021;-73
2022/04/28 02:05:08;;;;;;;8.10;4.50;;;7.70;66.20;;;;;;5090629;28;20044;-72
2022/04/28 02:07:34;;;;;;;8.30;4.35;;;7.60;66.70;;;;;;5085024;28;20031;-71
2022/04/28 02:10:00;;;;;;;7.50;4.65;;;7.60;66.60;;;;;;5084656;28;20028;-71
2022/04/28 02:12:26;;;;;;;8.23;4.35;;;7.60;66.60;;;;;;5069640;28;20033;-73
2022/04/28 02:14:53;;;;;;;6.18;3.90;;;7.60;66.50;;;;;;5089582;28;20051;-71
2022/04/28 02:17:33;;;;;;;6.80;4.13;;;7.60;66.40;;;;;;5084708;28;20078;-72
2022/04/28 02:20:03;;;;;;;9.40;4.90;;;7.60;66.50;;;;;;5084918;28;20081;-72
2022/04/28 02:22:29;;;;;;;9.25;4.13;;;7.50;66.60;;;;;;5088739;28;20099;-71
2022/04/28 02:24:54;;;;;;;8.18;4.45;;;7.50;66.50;;;;;;5086803;28;20099;-71
2022/04/28 02:27:20;;;;;;;8.35;4.43;;;7.60;66.60;;;;;;5083531;28;20020;-71
2022/04/28 02:29:45;;;;;;;7.28;4.00;;;7.50;66.60;;;;;;5087626;28;20065;-72
2022/04/28 02:32:11;;;;;;;8.10;3.83;;;7.50;66.50;;;;;;5103966;28;20035;-72
2022/04/28 02:34:36;;;;;;;7.47;4.10;;;7.60;66.60;;;;;;5087894;28;20028;-73
2022/04/28 02:37:02;;;;;;;8.30;4.13;;;7.60;66.60;;;;;;5078865;28;20382;-73
2022/04/28 02:39:28;;;;;;;8.55;5.18;;;7.50;66.60;;;;;;5084568;28;20062;-73
2022/04/28 02:41:53;;;;;;;7.63;4.30;;;7.50;66.80;;;;;;5086159;28;20068;-73
2022/04/28 02:44:19;;;;;;;7.32;4.30;;;7.50;66.80;;;;;;5088515;28;20406;-73
2022/04/28 02:46:48;;;;;;;6.07;4.00;;;7.50;66.90;;;;;;5087951;28;20051;-73
2022/04/28 02:49:14;;;;;;;8.48;4.40;;;7.50;67.00;;;;;;5086596;28;20509;-72
2022/04/28 02:51:39;;;;;;;8.63;4.25;;;7.50;67.00;;;;;;5087399;28;20107;-72
2022/04/28 02:54:05;;;;;;;10.57;5.25;;;7.50;67.00;;;;;;5088110;28;20103;-72
2022/04/28 02:56:31;;;;;;;9.25;5.20;;;7.40;67.40;;;;;;5089469;28;20051;-71
2022/04/28 02:58:57;;;;;;;8.43;4.50;;;7.40;67.60;;;;;;5089321;28;20060;-71
2022/04/28 03:01:23;;;;;;;8.07;4.20;;;7.40;67.60;;;;;;5087842;28;20466;-70
2022/04/28 03:03:49;;;;;;;6.35;4.32;;;7.40;67.60;;;;;;5087997;28;20393;-72
2022/04/28 03:11:44;;;;;;;8.27;4.70;;;7.40;67.90;;;;;;5088841;28;20101;-71
2022/04/28 03:14:10;;;;;;;10.32;4.50;;;7.30;68.40;;;;;;5088448;28;20028;-72
2022/04/28 03:16:36;;;;;;;9.30;4.43;;;7.30;68.30;;;;;;5089115;28;20026;-71
2022/04/28 03:19:02;;;;;;;7.82;4.10;;;7.40;68.10;;;;;;5087064;28;20099;-71
2022/04/28 03:21:28;;;;;;;9.15;4.60;;;7.40;67.90;;;;;;5081132;28;20455;-72
2022/04/28 03:23:53;;;;;;;10.20;5.40;;;7.40;68.00;;;;;;5087017;28;20107;-72
2022/04/28 03:26:19;;;;;;;8.13;4.45;;;7.30;68.60;;;;;;5089414;28;20020;-71
2022/04/28 03:28:45;;;;;;;8.23;4.40;;;7.30;69.10;;;;;;5087474;28;20032;-71
2022/04/28 03:31:10;;;;;;;6.85;4.43;;;7.30;68.30;;;;;;5089156;28;20028;-71
2022/04/28 03:33:36;;;;;;;8.00;5.05;;;7.40;68.20;;;;;;5084847;28;20032;-71
2022/04/28 03:36:02;;;;;;;10.38;4.70;;;7.30;68.60;;;;;;5085821;28;20024;-71
2022/04/28 03:38:27;;;;;;;8.75;4.85;;;7.30;68.40;;;;;;5080875;28;20592;-71
2022/04/28 03:40:53;;;;;;;9.05;4.88;;;7.30;68.40;;;;;;5080996;28;20082;-72
2022/04/28 03:43:18;;;;;;;11.02;4.57;;;7.30;68.30;;;;;;5087737;28;20020;-71
2022/04/28 03:45:44;;;;;;;7.70;4.25;;;7.30;68.20;;;;;;5085973;28;20074;-72
2022/04/28 03:48:10;;;;;;;7.10;4.30;;;7.30;68.10;;;;;;5083391;28;20043;-72
2022/04/28 03:50:37;;;;;;;8.27;4.93;;;7.30;68.00;;;;;;5089116;28;20107;-71
2022/04/28 03:53:04;;;;;;;6.10;3.85;;;7.30;68.10;;;;;;5091116;28;20032;-71
2022/04/28 03:55:29;;;;;;;9.52;5.10;;;7.30;68.10;;;;;;5090702;28;20031;-70
2022/04/28 03:57:55;;;;;;;7.18;3.58;;;7.30;68.10;;;;;;5090163;28;20026;-71
2022/04/28 04:00:21;;;;;;;6.63;3.50;;;7.30;68.10;;;;;;5091725;28;20739;-72
2022/04/28 04:02:48;;;;;;;9.20;4.10;;;7.30;67.90;;;;;;5088499;28;20040;-71
2022/04/28 04:05:14;;;;;;;6.85;4.15;;;7.30;67.80;;;;;;5084892;28;20054;-71
2022/04/28 04:07:41;;;;;;;5.60;3.83;;;7.30;67.70;;;;;;5090616;28;20024;-71
2022/04/28 04:10:07;;;;;;;7.95;4.10;;;7.30;67.70;;;;;;5088282;28;20027;-71
2022/04/28 04:12:33;;;;;;;6.40;4.03;;;7.30;68.30;;;;;;5090840;28;20103;-70
2022/04/28 04:14:59;;;;;;;8.32;4.18;;;7.30;67.80;;;;;;5090795;28;20107;-70
2022/04/28 04:17:24;;;;;;;6.75;3.75;;;7.30;67.90;;;;;;5088749;28;20032;-70
2022/04/28 04:19:50;;;;;;;11.50;5.80;;;7.30;67.80;;;;;;5090294;28;20028;-72
2022/04/28 04:22:16;;;;;;;8.43;4.85;;;7.20;68.20;;;;;;5090408;28;20052;-71
2022/04/28 04:24:41;;;;;;;7.70;4.57;;;7.10;68.90;;;;;;5085032;28;20081;-74
2022/04/28 04:27:07;;;;;;;8.05;4.60;;;7.10;68.80;;;;;;5089053;28;20043;-71
2022/04/28 04:29:33;;;;;;;9.25;4.85;;;7.10;69.00;;;;;;5082110;28;20082;-72
2022/04/28 04:34:47;;;;;;;10.73;5.22;;;7.10;69.00;;;;;;5083985;28;20044;-71
2022/04/28 04:37:13;;;;;;;8.38;4.45;;;7.10;69.30;;;;;;5089587;28;20032;-71
2022/04/28 04:39:40;;;;;;;7.30;4.80;;;7.10;69.10;;;;;;5085824;28;20071;-71
2022/04/28 04:42:06;;;;;;;9.23;4.00;;;7.10;69.00;;;;;;5088850;28;20016;-72
2022/04/28 04:44:32;;;;;;;6.88;4.32;;;7.20;69.00;;;;;;5091132;28;20115;-71
2022/04/28 04:46:58;;;;;;;9.88;4.85;;;7.20;68.80;;;;;;5091260;28;20520;-70
2022/04/28 04:49:23;;;;;;;5.70;3.53;;;7.20;68.90;;;;;;5091536;28;20028;-71
2022/04/28 04:51:49;;;;;;;9.27;4.95;;;7.30;68.80;;;;;;5088876;28;20032;-70
2022/04/28 04:54:14;;;;;;;6.75;3.80;;;7.30;68.80;;;;;;5091889;28;20150;-71
2022/04/28 04:56:40;;;;;;;9.13;4.10;;;7.30;68.80;;;;;;5091252;28;20048;-72
2022/04/28 04:59:05;;;;;;;7.82;4.07;;;7.30;68.60;;;;;;5090279;28;20024;-70
2022/04/28 05:01:31;;;;;;;7.00;3.78;;;7.30;68.40;;;;;;5087064;28;20024;-72
2022/04/28 05:03:56;;;;;;;8.95;4.35;;;7.30;68.40;;;;;;5084870;28;20110;-71
2022/04/28 05:06:22;;;;;;;6.05;3.50;;;7.40;68.30;;;;;;5091990;28;20024;-73
2022/04/28 05:08:47;;;;;;;9.70;4.85;;;7.40;68.20;;;;;;5091469;28;20115;-73
2022/04/28 05:11:13;;;;;;;7.72;4.25;;;7.40;68.40;;;;;;5090261;28;20404;-72
2022/04/28 05:13:39;;;;;;;8.13;4.07;;;7.40;68.30;;;;;;5080955;28;20040;-71
2022/04/28 05:16:05;;;;;;;9.27;4.03;;;7.50;68.20;;;;;;5089819;28;20020;-70
2022/04/28 05:18:30;;;;;;;9.38;4.75;;;7.60;68.00;;;;;;5083158;28;20067;-70
2022/04/28 05:20:56;;;;;;;9.38;4.57;;;7.60;68.10;;;;;;5090558;28;20916;-72
2022/04/28 05:23:22;;;;;;;5.93;3.58;;;7.60;68.40;;;;;;5090172;28;20087;-71
2022/04/28 05:25:48;;;;;;;12.32;5.53;;;7.70;67.80;;;;;;5085503;28;20479;-73
2022/04/28 05:28:13;;;;;;;7.68;4.88;;;7.60;68.40;;;;;;5080963;28;20026;-73
2022/04/28 05:30:39;;;;;;;8.20;4.22;;;7.90;68.70;;;;;;5087287;28;20055;-70
2022/04/28 05:33:05;;;;;;;8.25;4.25;;;9.10;67.40;;;;;;5089219;28;20069;-71
2022/04/28 05:35:31;;;;;;;6.78;4.25;;;10.20;64.20;;;;;;5089779;28;20107;-69
2022/04/28 05:37:56;;;;;;;6.50;3.50;;;11.10;61.40;;;;;;5088929;28;20024;-70
2022/04/28 05:40:22;;;;;;;7.25;4.32;;;12.00;59.00;;;;;;5087234;28;20521;-71
2022/04/28 05:45:43;;;;;;;6.25;3.50;;;13.00;55.10;;;;;;5087709;28;20038;-71
2022/04/28 05:48:19;;;;;;;9.50;3.90;;;13.60;54.10;;;;;;5088308;28;20108;-71
2022/04/28 05:50:45;;;;;;;8.00;3.53;;;14.20;52.10;;;;;;5086959;28;20024;-72
2022/04/28 05:53:11;;;;;;;6.63;3.25;;;14.80;51.00;;;;;;5078024;28;20099;-70
2022/04/28 05:55:38;;;;;;;5.88;2.78;;;15.40;49.20;;;;;;5086551;28;20032;-72
2022/04/28 05:58:05;;;;;;;5.93;3.40;;;15.70;48.90;;;;;;5088791;28;20024;-72
2022/04/28 06:00:31;;;;;;;6.03;3.20;;;16.00;47.60;;;;;;5080082;28;20021;-70
2022/04/28 06:02:58;;;;;;;7.47;3.35;;;16.10;46.80;;;;;;5085539;28;20077;-70
2022/04/28 06:05:24;;;;;;;7.50;3.00;;;16.30;46.20;;;;;;5086135;28;20032;-71
2022/04/28 06:07:50;;;;;;;7.80;3.35;;;17.00;45.60;;;;;;5081871;28;20458;-71
2022/04/28 06:10:15;;;;;;;7.88;3.30;;;17.00;44.20;;;;;;5089445;28;20027;-71
2022/04/28 06:12:42;;;;;;;5.85;2.47;;;17.10;44.10;;;;;;5084594;28;20028;-71
2022/04/28 06:15:09;;;;;;;7.35;2.95;;;17.70;43.70;;;;;;5087050;28;20040;-72
2022/04/28 06:17:34;;;;;;;6.22;3.25;;;18.20;42.80;;;;;;5097650;28;20438;-71
2022/04/28 06:20:00;;;;;;;5.70;3.10;;;18.40;41.60;;;;;;5086749;28;20099;-69
2022/04/28 06:22:25;;;;;;;7.30;3.38;;;18.40;41.20;;;;;;5088293;28;20093;-70
2022/04/28 06:24:52;;;;;;;4.55;2.42;;;18.70;41.00;;;;;;5088909;28;20024;-70
2022/04/28 06:27:18;;;;;;;6.22;2.75;;;19.20;40.50;;;;;;5089653;28;20483;-70
2022/04/28 06:29:44;;;;;;;6.63;3.35;;;19.40;39.90;;;;;;5085941;28;20518;-70
2022/04/28 06:32:10;;;;;;;6.63;2.70;;;19.10;39.20;;;;;;5079588;28;20043;-71
2022/04/28 06:34:36;;;;;;;5.05;2.70;;;19.20;39.50;;;;;;5087774;28;20024;-71
2022/04/28 06:37:02;;;;;;;10.25;2.85;;;19.60;39.20;;;;;;5089885;28;20554;-71
2022/04/28 06:39:27;;;;;;;3.85;2.30;;;19.40;38.80;;;;;;5088786;28;20077;-70
2022/04/28 06:41:53;;;;;;;5.03;2.40;;;19.90;38.80;;;;;;5088807;28;20024;-71
2022/04/28 06:44:18;;;;;;;5.07;2.00;;;20.40;38.10;;;;;;5085238;28;20016;-71
2022/04/28 06:46:44;;;;;;;7.53;2.83;;;20.70;37.80;;;;;;5087838;28;20039;-70
2022/04/28 06:49:09;;;;;;;5.28;2.40;;;20.10;37.20;;;;;;5089425;28;20066;-71
2022/04/28 06:51:35;;;;;;;5.38;2.67;;;19.90;37.90;;;;;;5084542;28;20410;-71
2022/04/28 06:54:00;;;;;;;5.15;2.45;;;19.90;38.00;;;;;;5081857;28;20065;-71
2022/04/28 06:56:26;;;;;;;6.60;2.30;;;19.90;38.20;;;;;;5088360;28;20040;-73
2022/04/28 06:58:51;;;;;;;7.57;3.10;;;20.00;37.90;;;;;;5088956;28;20024;-71
2022/04/28 07:01:17;;;;;;;6.30;2.95;;;19.70;38.20;;;;;;5084185;28;20059;-71
2022/04/28 07:03:42;;;;;;;7.45;2.53;;;19.40;37.70;;;;;;5084682;28;20107;-71
2022/04/28 07:06:08;;;;;;;5.60;2.45;;;19.30;38.30;;;;;;5083935;28;20031;-71
2022/04/28 07:08:33;;;;;;;4.25;2.10;;;19.50;38.40;;;;;;5085889;28;20477;-72
2022/04/28 07:10:59;;;;;;;6.68;2.58;;;19.50;38.40;;;;;;5084152;28;20060;-72
2022/04/28 07:13:25;;;;;;;4.35;2.30;;;19.50;38.30;;;;;;5083979;28;20032;-72
2022/04/28 07:15:50;;;;;;;5.88;2.40;;;19.90;38.10;;;;;;5088275;28;20467;-71
2022/04/28 07:18:16;;;;;;;3.88;1.90;;;20.20;37.20;;;;;;5086264;28;20093;-72
2022/04/28 07:20:44;;;;;;;4.88;1.92;;;20.30;37.20;;;;;;5084131;28;20853;-72
2022/04/28 07:23:10;;;;;;;4.10;2.20;;;20.30;36.90;;;;;;5088774;28;20024;-72
2022/04/28 07:25:36;;;;;;;5.60;2.70;;;20.30;37.10;;;;;;5087545;28;20028;-73
2022/04/28 07:28:01;;;;;;;7.32;2.72;;;20.00;36.40;;;;;;5090848;28;20491;-72
2022/04/28 07:30:27;;;;;;;4.10;2.30;;;19.60;36.50;;;;;;5093294;28;20106;-68
2022/04/28 07:32:53;;;;;;;4.50;2.92;;;19.70;37.50;;;;;;5096922;28;20059;-72
2022/04/28 07:35:20;;;;;;;4.88;2.45;;;19.70;37.10;;;;;;5092916;28;20344;-73
2022/04/28 07:37:45;;;;;;;7.80;3.40;;;20.30;37.00;;;;;;5093916;28;20427;-71
2022/04/28 07:40:11;;;;;;;7.90;3.17;;;19.70;35.80;;;;;;5095866;28;20031;-73
2022/04/28 07:42:37;;;;;;;6.30;2.58;;;18.90;37.50;;;;;;5098093;28;20051;-73
2022/04/28 07:45:03;;;;;;;5.50;2.40;;;18.50;38.30;;;;;;5093218;28;20062;-73
2022/04/28 07:47:29;;;;;;;6.78;3.10;;;18.60;39.60;;;;;;5096603;28;20145;-72
2022/04/28 07:49:55;;;;;;;9.23;3.00;;;18.50;38.60;;;;;;5098198;28;20028;-70
2022/04/28 07:52:21;;;;;;;6.30;2.50;;;18.50;39.00;;;;;;5095056;28;20391;-70
2022/04/28 07:54:47;;;;;;;4.22;2.22;;;18.80;39.30;;;;;;5095823;28;20032;-69
2022/04/28 07:57:13;;;;;;;3.58;1.95;;;18.70;39.40;;;;;;5092435;28;20025;-71
2022/04/28 07:59:39;;;;;;;5.15;2.42;;;19.00;39.50;;;;;;5099046;28;20065;-70
2022/04/28 08:02:05;;;;;;;4.03;2.40;;;18.90;39.70;;;;;;5090516;28;20079;-70
2022/04/28 08:04:51;;;;;;;6.93;2.80;;;18.60;40.20;;;;;;5092046;28;20114;-71
2022/04/28 08:07:18;;;;;;;6.18;2.78;;;17.90;40.60;;;;;;5090230;28;20118;-71
2022/04/28 08:09:43;;;;;;;8.05;2.97;;;17.00;42.10;;;;;;5100396;28;20028;-72
2022/04/28 08:12:09;;;;;;;5.82;2.70;;;16.60;43.00;;;;;;5096106;28;20493;-71
2022/04/28 08:14:35;;;;;;;4.82;2.35;;;16.10;44.30;;;;;;5093306;28;20402;-70
2022/04/28 08:17:01;;;;;;;6.53;2.63;;;15.90;44.80;;;;;;5095264;28;20023;-71
2022/04/28 08:19:26;;;;;;;4.47;2.45;;;15.80;45.20;;;;;;5088305;28;20020;-71
2022/04/28 08:21:52;;;;;;;4.90;2.45;;;15.60;45.40;;;;;;5091877;28;20017;-70
2022/04/28 08:24:17;;;;;;;6.63;3.30;;;15.40;45.90;;;;;;5088542;28;20039;-68
2022/04/28 08:26:43;;;;;;;6.03;2.83;;;15.20;46.20;;;;;;5092314;28;20057;-70
2022/04/28 08:29:09;;;;;;;6.32;3.20;;;15.10;46.30;;;;;;5089321;28;20036;-70
2022/04/28 08:31:43;;;;;;;5.15;2.35;;;14.90;46.40;;;;;;5093191;28;20031;-69
2022/04/28 08:34:09;;;;;;;4.25;2.30;;;14.90;46.90;;;;;;5091300;28;20649;-70
2022/04/28 08:36:35;;;;;;;4.47;2.60;;;15.00;46.90;;;;;;5092972;28;20114;-69
2022/04/28 08:39:00;;;;;;;5.45;2.80;;;15.10;46.80;;;;;;5090304;28;20095;-70
2022/04/28 08:41:37;;;;;;;8.32;3.22;;;15.00;46.40;;;;;;5089191;28;20501;-70
2022/04/28 08:44:05;;;;;;;6.63;3.40;;;14.80;47.00;;;;;;5088559;28;20493;-70
2022/04/28 08:46:50;;;;;;;4.68;2.92;;;14.80;47.20;;;;;;5093237;28;20474;-71
2022/04/28 08:49:37;;;;;;;8.20;2.63;;;14.80;47.40;;;;;;5091966;28;20032;-71
2022/04/28 08:52:04;;;;;;;6.03;3.22;;;15.10;47.30;;;;;;5090242;28;20020;-69
2022/04/28 08:54:30;;;;;;;7.45;3.15;;;15.20;46.80;;;;;;5092581;28;20036;-71
2022/04/28 08:56:57;;;;;;;6.97;2.90;;;15.00;46.80;;;;;;5091133;28;20700;-71
2022/04/28 08:59:24;;;;;;;9.60;4.15;;;15.00;47.30;;;;;;5090714;28;20428;-71
2022/04/28 09:01:50;;;;;;;5.72;2.85;;;15.00;46.50;;;;;;5087124;28;20545;-70
2022/04/28 09:04:17;;;;;;;6.93;3.50;;;15.00;47.40;;;;;;5089801;28;20028;-70
2022/04/28 09:06:44;;;;;;;6.93;3.70;;;15.00;47.20;;;;;;5086538;28;20035;-70
2022/04/28 09:09:17;;;;;;;7.72;3.13;;;15.00;46.90;;;;;;5100594;27;20050;-71
2022/04/28 09:11:44;;;;;;;8.38;3.28;;;15.00;47.00;;;;;;5085411;28;20112;-71
2022/04/28 09:14:13;;;;;;;4.20;2.70;;;15.10;46.90;;;;;;5088877;28;20021;-69
2022/04/28 09:16:43;;;;;;;6.90;3.40;;;15.20;46.90;;;;;;5088409;28;20028;-70
2022/04/28 09:19:27;;;;;;;7.00;3.60;;;15.30;46.70;;;;;;5088220;28;20031;-72
2022/04/28 09:22:00;;;;;;;7.47;3.30;;;15.00;46.00;;;;;;5088457;28;20027;-71
2022/04/28 09:24:26;;;;;;;4.25;2.60;;;14.80;46.80;;;;;;5084960;28;20103;-71
2022/04/28 09:26:56;;;;;;;5.18;2.67;;;14.90;47.00;;;;;;5084787;28;20109;-71
2022/04/28 09:29:23;;;;;;;7.53;3.30;;;14.90;47.10;;;;;;5086783;28;20689;-71
2022/04/28 09:31:51;;;;;;;5.00;2.70;;;15.00;47.20;;;;;;5085593;28;20494;-70
2022/04/28 09:34:18;;;;;;;4.85;2.60;;;15.10;47.10;;;;;;5082883;28;20105;-71
2022/04/28 09:36:46;;;;;;;4.60;2.70;;;15.20;46.80;;;;;;5085874;28;20016;-70
2022/04/28 09:42:33;;;;;;;10.65;3.80;;;15.40;46.30;;;;;;5087242;28;20077;-70
2022/04/28 09:45:00;;;;;;;5.80;2.88;;;15.40;45.30;;;;;;5083919;28;20036;-71
2022/04/28 09:47:28;;;;;;;4.88;2.60;;;15.30;46.00;;;;;;5087462;28;20107;-70
2022/04/28 09:49:55;;;;;;;6.55;2.90;;;15.40;46.10;;;;;;5082023;28;20532;-69
2022/04/28 09:52:24;;;;;;;6.75;3.08;;;15.60;46.10;;;;;;5088382;28;20028;-71
2022/04/28 09:54:51;;;;;;;4.43;2.50;;;15.70;45.70;;;;;;5083098;28;20113;-69
2022/04/28 09:57:18;;;;;;;6.13;2.97;;;15.70;45.50;;;;;;5079827;28;20020;-71
2022/04/28 09:59:45;;;;;;;7.38;3.80;;;15.70;45.40;;;;;;5084140;28;20020;-69
2022/04/28 10:02:20;;;;;;;6.10;2.92;;;15.60;45.20;;;;;;5083572;28;20024;-71
2022/04/28 10:04:47;;;;;;;5.75;2.50;;;15.70;45.50;;;;;;5085643;28;20085;-71
2022/04/28 10:07:13;;;;;;;7.05;3.22;;;15.90;45.50;;;;;;5086988;28;20115;-71
2022/04/28 10:09:40;;;;;;;6.10;3.38;;;15.90;45.30;;;;;;5084958;28;20020;-70
2022/04/28 10:12:07;;;;;;;10.75;6.30;;;16.00;45.10;;;;;;5085813;28;20115;-70
2022/04/28 10:14:35;;;;;;;8.05;3.65;;;15.70;45.10;;;;;;5085642;28;20508;-69
2022/04/28 10:17:01;;;;;;;9.98;4.53;;;15.60;45.20;;;;;;5087103;28;20027;-69
2022/04/28 10:19:34;;;;;;;7.78;3.78;;;15.40;45.90;;;;;;5085694;28;20028;-73
2022/04/28 10:22:03;;;;;;;6.53;3.53;;;15.30;45.50;;;;;;5089471;28;20489;-72
2022/04/28 10:33:00;;;;;;;6.35;2.60;;;15.90;45.70;;;;;;5075379;28;20406;-72
2022/04/28 10:35:48;;;;;;;6.63;3.20;;;16.10;45.40;;;;;;5089260;28;20024;-71
2022/04/28 10:38:31;;;;;;;8.13;4.10;;;16.40;44.80;;;;;;5084256;28;20506;-71
2022/04/28 10:41:04;;;;;;;5.88;4.03;;;16.20;44.30;;;;;;5083626;28;20506;-71
2022/04/28 10:43:32;;;;;;;6.13;2.97;;;16.00;44.40;;;;;;5100394;28;20095;-71
2022/04/28 10:45:59;;;;;;;6.55;2.67;;;16.10;44.80;;;;;;5086192;28;20028;-70
2022/04/28 10:48:32;;;;;;;4.15;2.85;;;16.40;44.70;;;;;;5086399;28;20031;-71
2022/04/28 10:51:18;;;;;;;4.30;2.50;;;16.50;44.10;;;;;;5087181;28;20024;-71
2022/04/28 10:54:01;;;;;;;5.45;2.50;;;16.50;43.90;;;;;;5081810;28;20028;-72
2022/04/28 10:56:29;;;;;;;7.88;3.35;;;16.70;43.70;;;;;;5084509;28;20028;-72
2022/04/28 10:59:21;;;;;;;5.20;2.90;;;16.80;43.30;;;;;;5087784;28;20020;-72
2022/04/28 11:01:47;;;;;;;5.40;2.78;;;16.60;43.10;;;;;;5085272;28;20024;-72
2022/04/28 11:04:16;;;;;;;6.47;3.58;;;16.80;43.30;;;;;;5079178;28;20123;-71
2022/04/28 11:06:50;;;;;;;6.10;3.13;;;16.70;42.50;;;;;;5085926;28;20571;-71
2022/04/28 11:09:38;;;;;;;6.45;3.30;;;16.40;43.10;;;;;;5085211;28;20028;-72
2022/04/28 11:12:11;;;;;;;6.65;3.10;;;16.30;43.50;;;;;;5076739;28;20036;-72
2022/04/28 11:14:52;;;;;;;4.53;2.97;;;16.40;43.80;;;;;;5070653;28;20495;-71
2022/04/28 11:17:21;;;;;;;7.20;3.30;;;16.40;43.40;;;;;;5087860;28;20103;-71
2022/04/28 11:19:47;;;;;;;7.95;3.75;;;16.30;43.40;;;;;;5087026;28;20039;-71
2022/04/28 11:22:13;;;;;;;6.20;3.03;;;16.50;43.20;;;;;;5076776;28;20494;-71
2022/04/28 11:24:42;;;;;;;5.80;2.95;;;16.50;42.70;;;;;;5084136;28;20032;-71
2022/04/28 11:27:08;;;;;;;5.70;3.42;;;16.60;43.20;;;;;;5086043;28;20043;-71
2022/04/28 11:29:39;;;;;;;6.93;3.78;;;16.60;43.10;;;;;;5085359;28;20426;-72
2022/04/28 11:32:35;;;;;;;5.82;4.13;;;16.80;43.30;;;;;;5082084;28;20069;-72
2022/04/28 11:35:02;;;;;;;6.72;3.20;;;16.40;43.30;;;;;;5082369;28;20036;-71
2022/04/28 11:37:28;;;;;;;4.05;3.10;;;16.40;44.00;;;;;;5091816;28;20112;-72
2022/04/28 11:39:56;;;;;;;6.93;3.50;;;16.60;44.00;;;;;;5092817;28;20027;-71
2022/04/28 11:42:24;;;;;;;4.40;3.03;;;16.80;43.80;;;;;;5089664;28;20096;-71
2022/04/28 11:44:57;;;;;;;5.70;3.35;;;16.90;43.40;;;;;;5100535;28;20458;-72
2022/04/28 11:47:24;;;;;;;5.82;3.03;;;17.10;43.10;;;;;;5091936;28;20607;-71
2022/04/28 11:50:03;;;;;;;4.97;3.05;;;17.30;42.70;;;;;;5090041;28;20119;-71
2022/04/28 11:52:35;;;;;;;2.97;2.13;;;17.50;42.50;;;;;;5089140;28;20093;-71
2022/04/28 11:55:08;;;;;;;5.63;3.40;;;17.70;42.30;;;;;;5093205;28;20077;-71
2022/04/28 11:57:37;;;;;;;4.43;3.15;;;17.60;41.40;;;;;;5091280;28;20017;-72
2022/04/28 12:00:06;;;;;;;5.72;3.22;;;17.40;41.70;;;;;;5089980;28;20013;-71
2022/04/28 12:02:36;;;;;;;4.53;2.60;;;17.50;42.30;;;;;;5084513;28;20097;-71
2022/04/28 12:05:10;;;;;;;6.78;3.60;;;17.70;42.20;;;;;;5080168;28;20111;-71
2022/04/28 12:07:36;;;;;;;5.15;2.78;;;17.40;41.90;;;;;;5103483;28;20064;-71
2022/04/28 12:15:32;;;;;;;3.28;2.30;;;17.80;41.90;;;;;;5091191;28;20035;-71
2022/04/28 12:20:54;;;;;;;7.60;4.30;;;18.10;41.60;;;;;;5078802;28;20035;-72
2022/04/28 12:23:52;;;;;;;5.28;2.90;;;17.90;40.50;;;;;;5087144;28;20554;-72
2022/04/28 12:26:24;;;;;;;6.72;3.00;;;17.60;41.70;;;;;;5079781;28;20127;-73
2022/04/28 12:28:50;;;;;;;4.88;2.78;;;17.80;41.70;;;;;;5087953;28;20028;-71
2022/04/28 12:31:26;;;;;;;5.13;2.80;;;18.00;41.50;;;;;;5091967;28;20035;-71
2022/04/28 12:33:52;;;;;;;5.05;2.55;;;18.20;41.30;;;;;;5090560;28;20035;-72
2022/04/28 12:36:17;;;;;;;5.78;3.45;;;18.50;41.10;;;;;;5090665;28;20360;-72
2022/04/28 12:38:49;;;;;;;4.82;2.70;;;18.60;40.40;;;;;;5087389;28;20020;-71
2022/04/28 12:41:16;;;;;;;4.43;2.80;;;18.50;40.30;;;;;;5089017;28;20040;-70
2022/04/28 12:43:48;;;;;;;4.85;2.75;;;18.50;40.30;;;;;;5090175;28;20024;-71
2022/04/28 12:46:19;;;;;;;4.75;2.50;;;18.70;40.20;;;;;;5086467;28;20020;-72
2022/04/28 12:48:53;;;;;;;15.15;8.50;;;18.90;40.20;;;;;;5088195;28;20028;-72
2022/04/28 12:51:24;;;;;;;8.55;4.65;;;19.10;39.30;;;;;;5090510;28;20028;-72
2022/04/28 12:53:52;;;;;;;5.65;3.35;;;19.10;39.20;;;;;;5087656;28;20052;-71
2022/04/28 12:56:31;;;;;;;5.35;3.00;;;19.00;39.00;;;;;;5089502;28;20513;-71
2022/04/28 12:58:58;;;;;;;3.83;2.50;;;19.00;39.20;;;;;;5084583;28;20028;-72
2022/04/28 13:01:25;;;;;;;4.93;3.30;;;19.10;39.10;;;;;;5082470;28;20504;-72
2022/04/28 13:04:02;;;;;;;5.47;3.10;;;19.10;38.80;;;;;;5086726;28;20050;-71
2022/04/28 13:06:30;;;;;;;6.18;3.42;;;19.20;38.40;;;;;;5086923;28;20032;-71
2022/04/28 13:08:58;;;;;;;6.93;3.83;;;18.90;38.50;;;;;;5087381;28;20028;-72
2022/04/28 13:11:29;;;;;;;7.82;3.88;;;18.80;38.70;;;;;;5085417;28;20074;-71
2022/04/28 13:13:59;;;;;;;5.47;3.10;;;18.80;38.90;;;;;;5089884;28;20039;-72
2022/04/28 13:16:25;;;;;;;4.85;3.22;;;18.70;39.00;;;;;;5085989;28;20544;-72
2022/04/28 13:18:52;;;;;;;4.32;2.67;;;18.70;39.20;;;;;;5089413;28;20077;-73
2022/04/28 13:21:17;;;;;;;5.75;3.00;;;18.90;39.10;;;;;;5090783;28;20016;-72
2022/04/28 13:23:44;;;;;;;7.50;3.70;;;19.20;38.90;;;;;;5086364;28;20101;-71
2022/04/28 13:26:12;;;;;;;4.75;2.58;;;19.30;38.80;;;;;;5082943;28;20027;-72
2022/04/28 13:28:38;;;;;;;4.22;2.50;;;19.60;38.80;;;;;;5083852;28;20194;-72